Flight Track Log - Related Links

Times and Time Zones

All times are in EDT time to prevent confusion due to time zone crossing. See the N742AX flight status page for this flight to view local times or setup timezone preferences in your user account.

Time Position Orientation Groundspeed Altitude Reporting Facility
EDT Latitude Longitude Course Direction KTS MPH feet Rate Location/Type
Fri 04:19:32 AM 25.7890 -80.2970 138° Southeast 150 173  Level FlightAware ADS-B
Fri 04:20:02 AM 25.7910 -80.2730 85° East 156 180 1,100 1,745 Climbing FlightAware ADS-B
Fri 04:20:27 AM 25.7880 -80.2510 99° East 176 203 1,600 1,309 Climbing FlightAware ADS-B
Fri 04:20:57 AM 25.7850 -80.2220 97° East 209 241 2,300 1,636 Climbing FlightAware ADS-B
Fri 04:21:22 AM 25.7800 -80.1950 102° East 217 250 3,100 1,855 Climbing FlightAware ADS-B
Fri 04:21:52 AM 25.7610 -80.1640 124° Southeast 244 281 4,000 2,182 Climbing FlightAware ADS-B
Fri 04:22:17 AM 25.7500 -80.1370 114° Southeast 255 293 5,100 2,618 Climbing FlightAware ADS-B
Fri 04:22:47 AM 25.7430 -80.0980 101° East 261 300 6,400 2,600 Climbing FlightAware ADS-B
Fri 04:23:17 AM 25.7340 -80.0580 104° East 267 307 7,700 2,618 Climbing FlightAware ADS-B
Fri 04:23:42 AM 25.7260 -80.0220 104° East 277 319 8,800 2,291 Climbing FlightAware ADS-B
Fri 04:24:12 AM 25.7170 -79.9830 104° East 288 331 9,800 1,800 Climbing FlightAware ADS-B
Fri 04:24:52 AM 25.7040 -79.9200 103° East 323 372 10,900 1,341 Climbing FlightAware ADS-B
Fri 04:25:37 AM 25.6860 -79.8440 105° East 365 420 11,700 1,129 Climbing FlightAware ADS-B
Fri 04:26:17 AM 25.6690 -79.7670 104° East 397 457 12,500 1,200 Climbing FlightAware ADS-B
Fri 04:27:02 AM 25.6480 -79.6740 104° East 423 487 13,400 1,694 Climbing FlightAware ADS-B
Fri 04:27:42 AM 25.6290 -79.5880 104° East 423 487 14,900 2,100 Climbing FlightAware ADS-B
Fri 04:28:22 AM 25.6110 -79.5040 103° East 430 495 16,200 1,765 Climbing FlightAware ADS-B
Fri 04:29:07 AM 25.5900 -79.4090 104° East 440 506 17,400 1,482 Climbing FlightAware ADS-B
Fri 04:29:47 AM 25.5700 -79.3190 104° East 453 521 18,300 1,350 Climbing FlightAware ADS-B
Fri 04:30:27 AM 25.5490 -79.2330 105° East 463 533 19,200 1,431 Climbing FlightAware ADS-B
Fri 04:31:57 AM 25.4920 -79.0300 107° East 470 541 21,400 1,400 Climbing FlightAware ADS-B
Fri 04:32:57 AM 25.4510 -78.8840 107° East 497 572 22,700 1,091 Climbing FlightAware ADS-B
Fri 04:33:47 AM 25.4170 -78.7620 107° East 513 590 23,400 1,129 Climbing FlightAware ADS-B
Fri 04:34:22 AM 25.3950 -78.6860 108° East 515 593 24,300 1,500 Climbing FlightAware ADS-B
Fri 04:35:07 AM 25.3590 -78.5600 108° East 515 593 25,400 1,600 Climbing FlightAware ADS-B
Fri 04:35:52 AM 25.3270 -78.4480 108° East 513 590 26,700 1,760 Climbing FlightAware ADS-B
Fri 04:36:22 AM 25.3080 -78.3820 108° East 506 582 27,600 635 Climbing FlightAware ADS-B
Fri 04:37:17 AM 25.2760 -78.2570 106° East 506 582 27,600  Level FlightAware ADS-B
Fri 04:37:57 AM 25.2540 -78.1730 106° East 506 582 27,600  Level FlightAware ADS-B
Fri 04:38:37 AM 25.2320 -78.0880 106° East 506 582 27,600  Level FlightAware ADS-B
Fri 04:39:17 AM 25.2100 -78.0030 106° East 506 582 27,600  Level FlightAware ADS-B
Fri 04:39:57 AM 25.1880 -77.9190 106° East 506 582 27,600 5,483 Level FlightAware ADS-B
Fri 04:40:15 AM 25.1306 -77.8114 106° East 501 577 32,900 5,000 Climbing Miami Center
Fri 04:41:15 AM 25.0894 -77.6689 108° East 501 577 34,100 1,041 Climbing Miami Center
Fri 04:42:16 AM 25.0444 -77.5172 108° East 501 577 35,000 450 Climbing Miami Center
Fri 04:43:15 AM 25.0011 -77.3769 109° East 501 577 35,000  Level Miami Center
Fri 04:44:15 AM 24.9533 -77.2233 109° East 516 594 35,000  Level Miami Center
Fri 04:45:18 AM 24.8825 -77.0903 120° Southeast 504 580 35,000  Level Miami Center
Fri 04:46:17 AM 24.8094 -76.9572 121° Southeast 499 574 35,000  Level Miami Center
Fri 04:47:17 AM 24.7386 -76.8244 120° Southeast 504 580 35,000  Level Miami Center
Fri 04:48:16 AM 24.6694 -76.6964 121° Southeast 504 580 35,000  Level Miami Center
Fri 04:49:15 AM 24.5981 -76.5639 121° Southeast 499 574 35,000  Level Miami Center
Fri 04:50:18 AM 24.5289 -76.4294 119° Southeast 499 574 35,000  Level Miami Center
Fri 04:51:15 AM 24.4594 -76.3017 121° Southeast 499 574 35,000  Level Miami Center
Fri 04:52:17 AM 24.3900 -76.1719 120° Southeast 493 567 35,000  Level Miami Center
Fri 04:53:16 AM 24.3203 -76.0425 121° Southeast 493 567 35,000  Level Miami Center
Fri 04:54:15 AM 24.2486 -75.9108 121° Southeast 493 567 35,000  Level Miami Center
Fri 04:55:18 AM 24.1722 -75.7700 121° Southeast 493 567 35,000  Level Miami Center
Fri 04:56:16 AM 24.0981 -75.6364 121° Southeast 493 567 35,000  Level Miami Center
Fri 04:57:15 AM 24.0281 -75.5050 120° Southeast 493 567 35,000  Level Miami Center
Fri 04:58:17 AM 23.9578 -75.3717 120° Southeast 498 573 35,000  Level Miami Center
Fri 04:59:17 AM 23.8833 -75.2431 122° Southeast 498 573 35,000  Level Miami Center
Fri 05:00:16 AM 23.8108 -75.1100 121° Southeast 498 573 35,000  Level Miami Center
Fri 05:01:18 AM 23.7381 -74.9817 122° Southeast 498 573 35,000  Level Miami Center
Fri 05:02:16 AM 23.6653 -74.8511 121° Southeast 498 573 35,000  Level Miami Center
Fri 05:03:15 AM 23.5903 -74.7186 122° Southeast 503 579 35,000  Level Miami Center
Fri 05:04:15 AM 23.5194 -74.5908 121° Southeast 503 579 35,000  Level Miami Center
Fri 05:05:15 AM 23.4464 -74.4583 121° Southeast 508 585 35,000  Level Miami Center
Fri 05:06:15 AM 23.3711 -74.3264 122° Southeast 508 585 35,000  Level Miami Center
Fri 05:07:16 AM 23.2978 -74.1967 122° Southeast 508 585 35,000  Level Miami Center
Fri 05:08:15 AM 23.2244 -74.0669 122° Southeast 502 578 35,000  Level Miami Center
Fri 05:09:18 AM 23.1489 -73.9353 122° Southeast 507 583 35,000  Level Miami Center
Fri 05:10:18 AM 23.0814 -73.8036 119° Southeast 507 583 35,000  Level Miami Center
Fri 05:11:15 AM 22.9994 -73.6769 125° Southeast 507 583 35,000  Level Miami Center
Fri 05:12:18 AM 22.9278 -73.5458 121° Southeast 507 583 35,000  Level Miami Center
Fri 05:13:16 AM 22.8644 -73.4303 121° Southeast 507 583 35,000  Level Miami Center
Fri 05:14:18 AM 22.7906 -73.2992 121° Southeast 507 583 35,000  Level Miami Center
Fri 05:15:17 AM 22.7142 -73.1686 122° Southeast 507 583 35,000  Level Miami Center
Fri 05:16:16 AM 22.6314 -73.0292 123° Southeast 502 578 35,000  Level Miami Center
Fri 05:17:16 AM 22.5569 -72.8967 121° Southeast 507 583 35,000  Level Miami Center
Fri 05:18:15 AM 22.4806 -72.7686 123° Southeast 512 589 35,000  Level Miami Center
Fri 05:19:16 AM 22.4039 -72.6408 123° Southeast 512 589 35,000  Level Miami Center
Fri 05:20:17 AM 22.3272 -72.5086 122° Southeast 512 589 35,000  Level Miami Center
Fri 05:21:15 AM 22.2544 -72.3786 121° Southeast 512 589 35,000  Level Miami Center
Fri 05:22:16 AM 22.1797 -72.2511 122° Southeast 512 589 35,000  Level Miami Center
Fri 05:23:17 AM 22.1006 -72.1175 123° Southeast 512 589 35,000  Level Miami Center
Fri 05:24:17 AM 22.0256 -71.9881 122° Southeast 512 589 35,000  Level Miami Center
Fri 05:25:16 AM 21.9483 -71.8589 123° Southeast 512 589 35,000  Level Miami Center
Fri 05:26:16 AM 21.8728 -71.7275 122° Southeast 512 589 35,000  Level Miami Center
Fri 05:27:15 AM 21.7956 -71.5989 123° Southeast 512 589 35,000  Level Miami Center
Fri 05:28:15 AM 21.7178 -71.4678 123° Southeast 512 589 35,000  Level Miami Center
Fri 05:29:15 AM 21.6425 -71.3417 123° Southeast 507 583 35,000  Level Miami Center
Fri 05:30:18 AM 21.5667 -71.2108 122° Southeast 507 583 35,000  Level Miami Center
Fri 05:31:16 AM 21.5044 -71.1019 122° Southeast 507 583 35,000  Level Miami Center
Fri 05:32:17 AM 21.4133 -70.9611 125° Southeast 507 583 35,000  Level Miami Center
Fri 05:33:17 AM 21.3356 -70.8356 124° Southeast 512 589 35,000  Level Miami Center
Fri 05:34:15 AM 21.2575 -70.7078 123° Southeast 512 589 35,000  Level Miami Center
Fri 05:35:15 AM 21.1817 -70.5822 123° Southeast 517 595 35,000  Level Miami Center
Fri 05:36:17 AM 21.1033 -70.4550 123° Southeast 517 595 35,000  Level Miami Center
Fri 05:37:16 AM 21.0272 -70.3319 124° Southeast 517 595 35,000  Level Miami Center
Fri 05:38:15 AM 20.9489 -70.2047 123° Southeast 517 595 35,000  Level Miami Center
Fri 05:39:15 AM 20.8725 -70.0756 122° Southeast 517 595 35,000  Level Miami Center
Fri 05:40:16 AM 20.7961 -69.9508 123° Southeast 512 589 35,000  Level Miami Center
Fri 05:41:15 AM 20.7175 -69.8242 124° Southeast 512 589 35,000  Level Miami Center
Fri 05:42:16 AM 20.6389 -69.6975 124° Southeast 512 589 35,000  Level Miami Center
Fri 05:43:15 AM 20.5642 -69.5733 123° Southeast 512 589 35,000  Level Miami Center
Fri 05:44:16 AM 20.4897 -69.4489 123° Southeast 512 589 35,000  Level Miami Center
Fri 05:45:16 AM 20.4106 -69.3231 124° Southeast 507 583 35,000  Level Miami Center
Fri 05:46:17 AM 20.3317 -69.1992 124° Southeast 507 583 35,000  Level Miami Center
Fri 05:47:15 AM 20.2547 -69.0733 123° Southeast 512 589 35,000  Level Miami Center
Fri 05:48:18 AM 20.1756 -68.9500 124° Southeast 512 589 35,000  Level Miami Center
Fri 05:49:15 AM 20.0964 -68.8222 123° Southeast 512 589 35,000  Level Miami Center
Fri 05:50:16 AM 20.0189 -68.6969 123° Southeast 512 589 35,000  Level Miami Center
Fri 05:51:15 AM 19.9375 -68.5694 124° Southeast 512 589 35,000  Level Miami Center
Fri 05:52:18 AM 19.8486 -68.4275 124° Southeast 517 595 35,000  Level Miami Center
Fri 05:52:49 AM 19.8167 -68.3667 119° Southeast 520 598 35,000  Level San Juan Center
Fri 05:58:37 AM 19.3550 -67.5890 119° Southeast 543 625 35,000  Level FlightAware ADS-B
Fri 05:59:17 AM 19.2990 -67.5020 124° Southeast 543 625 35,000  Level FlightAware ADS-B
Fri 06:00:02 AM 19.2330 -67.3990 124° Southeast 543 625 35,000  Level FlightAware ADS-B
Fri 06:00:42 AM 19.1770 -67.3110 124° Southeast 542 624 35,000  Level FlightAware ADS-B
Fri 06:01:22 AM 19.1200 -67.2220 124° Southeast 541 623 35,000  Level FlightAware ADS-B
Fri 06:02:07 AM 19.0590 -67.1270 124° Southeast 539 620 35,000  Level FlightAware ADS-B
Fri 06:02:47 AM 19.0030 -67.0380 124° Southeast 539 620 35,000  Level FlightAware ADS-B
Fri 06:03:32 AM 18.9390 -66.9390 124° Southeast 540 621 35,000  Level FlightAware ADS-B
Fri 06:04:12 AM 18.8850 -66.8550 124° Southeast 540 621 35,000  Level FlightAware ADS-B
Fri 06:04:47 AM 18.8350 -66.7780 124° Southeast 539 620 35,000  Level FlightAware ADS-B
Fri 06:05:32 AM 18.7810 -66.6920 124° Southeast 539 620 35,000  Level FlightAware ADS-B
Fri 06:06:17 AM 18.7090 -66.5810 124° Southeast 538 619 35,000  Level FlightAware ADS-B
Fri 06:06:57 AM 18.6510 -66.4910 124° Southeast 538 619 35,000  Level FlightAware ADS-B
Fri 06:07:42 AM 18.5900 -66.3970 124° Southeast 536 617 35,000  Level FlightAware ADS-B
Fri 06:08:22 AM 18.5340 -66.3100 124° Southeast 536 617 35,000  Level FlightAware ADS-B
Fri 06:09:07 AM 18.4690 -66.2100 124° Southeast 536 617 35,000  Level FlightAware ADS-B
Fri 06:09:47 AM 18.4140 -66.1240 124° Southeast 535 616 35,000  Level FlightAware ADS-B
Fri 06:10:27 AM 18.3600 -66.0420 125° Southeast 535 616 35,000  Level FlightAware ADS-B
Fri 06:11:12 AM 18.2980 -65.9440 124° Southeast 532 612 35,000  Level FlightAware ADS-B
Fri 06:11:52 AM 18.2420 -65.8580 124° Southeast 532 612 35,000  Level FlightAware ADS-B
Fri 06:12:37 AM 18.1790 -65.7610 124° Southeast 531 611 35,000  Level FlightAware ADS-B
Fri 06:13:17 AM 18.1230 -65.6740 124° Southeast 531 611 35,000  Level FlightAware ADS-B
Fri 06:13:57 AM 18.0680 -65.5890 124° Southeast 531 611 35,000  Level FlightAware ADS-B
Fri 06:14:42 AM 18.0070 -65.4960 125° Southeast 533 613 35,000  Level FlightAware ADS-B
Fri 06:15:22 AM 17.9510 -65.4100 124° Southeast 533 613 35,000  Level FlightAware ADS-B
Fri 06:16:02 AM 17.8950 -65.3240 124° Southeast 532 612 35,000  Level FlightAware ADS-B
Fri 06:16:47 AM 17.8310 -65.2260 124° Southeast 535 616 35,000  Level FlightAware ADS-B
Fri 06:17:27 AM 17.7740 -65.1410 125° Southeast 536 617 35,000  Level FlightAware ADS-B
Fri 06:18:07 AM 17.7180 -65.0550 124° Southeast 537 618 35,000  Level FlightAware ADS-B
Fri 06:18:52 AM 17.6590 -64.9660 125° Southeast 538 619 35,000  Level FlightAware ADS-B
Fri 06:19:27 AM 17.6140 -64.8960 124° Southeast 538 619 35,000  Level FlightAware ADS-B
Fri 06:20:17 AM 17.5550 -64.8040 124° Southeast 538 619 35,000  Level FlightAware ADS-B
Fri 06:20:57 AM 17.5080 -64.7300 124° Southeast 538 619 35,000  Level FlightAware ADS-B
Fri 06:21:37 AM 17.4610 -64.6570 124° Southeast 538 619 35,000  Level FlightAware ADS-B
Fri 06:22:17 AM 17.4130 -64.5830 124° Southeast 538 619 35,000  Level FlightAware ADS-B
Fri 06:23:07 AM 17.3540 -64.4910 124° Southeast 538 619 35,000  Level FlightAware ADS-B
Fri 06:23:47 AM 17.3070 -64.4180 124° Southeast 538 619 35,000  Level FlightAware ADS-B
Fri 06:24:27 AM 17.2590 -64.3440 124° Southeast 538 619 35,000  Level FlightAware ADS-B
Fri 06:25:07 AM 17.2120 -64.2710 124° Southeast 538 619 35,000  Level FlightAware ADS-B
Fri 06:25:47 AM 17.1650 -64.1980 124° Southeast 538 619 35,000  Level FlightAware ADS-B
Fri 06:26:37 AM 17.1060 -64.1060 124° Southeast 538 619 35,000  Level FlightAware ADS-B
Fri 06:27:17 AM 17.0580 -64.0320 124° Southeast 538 619 35,000  Level FlightAware ADS-B
Fri 06:27:57 AM 17.0110 -63.9590 124° Southeast 538 619 35,000  Level FlightAware ADS-B
Fri 06:28:37 AM 16.9640 -63.8860 124° Southeast 538 619 35,000  Level FlightAware ADS-B
Fri 06:31:07 AM 16.6240 -63.4220 127° Southeast 518 596 35,000  Level FlightAware ADS-B
Fri 06:32:07 AM 16.5510 -63.3160 126° Southeast 519 597 35,000  Level FlightAware ADS-B
Fri 06:32:52 AM 16.4860 -63.2220 126° Southeast 516 594 35,000  Level FlightAware ADS-B
Fri 06:33:52 AM 16.4050 -63.1030 125° Southeast 516 594 35,000  Level FlightAware ADS-B
Fri 06:34:32 AM 16.3420 -63.0140 126° Southeast 515 593 35,000  Level FlightAware ADS-B
Fri 06:35:07 AM 16.2940 -62.9540 130° Southeast 510 587 35,000  Level FlightAware ADS-B
Fri 06:35:57 AM 16.2150 -62.8610 131° Southeast 509 586 35,000  Level FlightAware ADS-B
Fri 06:36:32 AM 16.1560 -62.7930 132° Southeast 509 586 35,000  Level FlightAware ADS-B
Fri 06:37:17 AM 16.0910 -62.7170 132° Southeast 509 586 35,000  Level FlightAware ADS-B
Fri 06:38:02 AM 16.0260 -62.6430 132° Southeast 509 586 35,000  Level FlightAware ADS-B
Fri 06:38:57 AM 15.9270 -62.5270 132° Southeast 511 588 35,000  Level FlightAware ADS-B
Fri 06:39:52 AM 15.8490 -62.4360 132° Southeast 513 590 35,000  Level FlightAware ADS-B
Fri 06:40:32 AM 15.7810 -62.3570 132° Southeast 513 590 35,000  Level FlightAware ADS-B
Fri 06:41:12 AM 15.7270 -62.2950 132° Southeast 513 590 35,000  Level FlightAware ADS-B
Fri 06:42:27 AM 15.5990 -62.1470 132° Southeast 510 587 35,000  Level FlightAware ADS-B
Fri 06:43:07 AM 15.5420 -62.0820 132° Southeast 510 587 35,000  Level FlightAware ADS-B
Fri 06:43:47 AM 15.4780 -62.0080 132° Southeast 511 588 35,000  Level FlightAware ADS-B
Fri 06:44:32 AM 15.4100 -61.9310 132° Southeast 512 589 35,000  Level FlightAware ADS-B
Fri 06:45:17 AM 15.3260 -61.8340 132° Southeast 514 592 35,000  Level FlightAware ADS-B
Fri 06:45:57 AM 15.2620 -61.7610 132° Southeast 514 592 35,000  Level FlightAware ADS-B
Fri 06:46:32 AM 15.2010 -61.6910 132° Southeast 515 593 35,000  Level FlightAware ADS-B
Fri 06:47:22 AM 15.1260 -61.6050 132° Southeast 515 593 35,000  Level FlightAware ADS-B
Fri 06:48:02 AM 15.0600 -61.5300 132° Southeast 516 594 35,000  Level FlightAware ADS-B
Fri 06:48:47 AM 14.9920 -61.4530 132° Southeast 516 594 35,000  Level FlightAware ADS-B
Fri 06:49:27 AM 14.9240 -61.3760 132° Southeast 517 595 35,000  Level FlightAware ADS-B
Fri 06:50:07 AM 14.8600 -61.3030 132° Southeast 516 594 35,000  Level FlightAware ADS-B
Fri 06:50:52 AM 14.7870 -61.2210 133° Southeast 517 595 35,000  Level FlightAware ADS-B
Fri 06:51:32 AM 14.7230 -61.1480 132° Southeast 517 595 35,000  Level FlightAware ADS-B
Fri 06:52:12 AM 14.6580 -61.0750 133° Southeast 516 594 35,000  Level FlightAware ADS-B
Fri 06:52:57 AM 14.5930 -61.0050 134° Southeast 514 592 35,000  Level FlightAware ADS-B
Fri 06:53:37 AM 14.5180 -60.9280 135° Southeast 512 589 35,000  Level FlightAware ADS-B
Fri 06:54:22 AM 14.4540 -60.8630 135° Southeast 512 589 35,000 -1,200 Level FlightAware ADS-B
Fri 06:55:32 AM 14.3240 -60.7320 136° Southeast 516 594 32,700 -2,455 Descending FlightAware ADS-B
Fri 06:56:12 AM 14.2590 -60.6660 135° Southeast 519 597 30,500 -3,375 Descending FlightAware ADS-B
Fri 06:56:52 AM 14.1910 -60.5970 135° Southeast 521 600 28,200 -3,525 Descending FlightAware ADS-B
Fri 06:57:32 AM 14.1200 -60.5240 135° Southeast 524 603 25,800 -2,188 Descending FlightAware ADS-B
Fri 06:58:17 AM 14.0490 -60.4520 135° Southeast 506 582 25,100 -706 Descending FlightAware ADS-B
Fri 06:58:57 AM 13.9800 -60.3820 135° Southeast 509 586 24,800 -1,976 Descending FlightAware ADS-B
Fri 06:59:42 AM 13.9000 -60.3010 135° Southeast 514 592 22,300 -2,063 Descending FlightAware ADS-B
Fri 07:00:33 AM 13.8260 -60.2260 135° Southeast 485 558 21,500 -3,221 Descending FlightAware ADS-B
Fri 07:01:17 AM 13.7430 -60.1770 150° Southeast 426 490 17,200 -2,899 Descending FlightAware ADS-B
Fri 07:02:02 AM 13.6780 -60.1310 145° Southeast 426 490 17,200  Level FlightAware ADS-B
Fri 07:02:42 AM 13.6230 -60.0910 145° Southeast 426 490 17,200  Level FlightAware ADS-B
Fri 07:03:22 AM 13.5680 -60.0520 145° Southeast 426 490 17,200  Level FlightAware ADS-B
Fri 07:04:12 AM 13.5000 -60.0020 144° Southeast 426 490 17,200  Level FlightAware ADS-B
Fri 07:04:52 AM 13.4450 -59.9630 145° Southeast 426 490 17,200  Level FlightAware ADS-B
Fri 07:07:00 AM 13.2680 -59.7378 136° Southeast  Level Estimated
Fri 07:08:00 AM 13.1850 -59.6324 136° Southeast  Level Estimated
Fri 07:09:00 AM 13.1072 -59.5238 136° Southeast  Level FlightAware Approximate
Fri 07:10:00 AM 13.0746 -59.4925 90° East  Level Estimated
Fri 07:11:00 AM 13.0746 -59.4925 90° East  Level Estimated
Fri 07:12:00 AM 13.0746 -59.4925 90° East  Level Estimated
Fri 07:13:00 AM 13.0746 -59.4925 90° East  Level Estimated
Fri 07:14:00 AM 13.0746 -59.4925 90° East  Level Estimated
Fri 07:15:00 AM 13.0746 -59.4925 90° East  Level Estimated
Fri 07:16:00 AM 13.0746 -59.4925 90° East  Level Estimated
Fri 07:17:00 AM 13.0746 -59.4925 90° East  Level Estimated
Fri 07:18:00 AM 13.0746 -59.4925 90° East  Level Estimated
Fri 07:19:00 AM 13.0746 -59.4925 90° East  Level Estimated
Fri 07:20:00 AM 13.0746 -59.4925 90° East  Level Estimated
Fri 07:21:00 AM 13.0746 -59.4925 90° East  Level Estimated
Fri 07:22:00 AM 13.0746 -59.4925 90° East  Level Estimated
Fri 07:23:00 AM 13.0746 -59.4925 90° East  Level Estimated
Fri 07:24:00 AM 13.0746 -59.4925 90° East  Level Estimated
Fri 07:25:00 AM 13.0746 -59.4925 90° East  Level Estimated
Fri 07:26:00 AM 13.0746 -59.4925 90° East  Level Estimated
Fri 07:27:00 AM 13.0746 -59.4925 90° East  Level Estimated
Fri 07:28:00 AM 13.0746 -59.4925 90° East  Level Estimated
Fri 07:29:00 AM 13.0746 -59.4925 90° East  Level Estimated
Fri 07:30:00 AM 13.0746 -59.4925 90° East  Level Estimated
Fri 07:31:00 AM 13.0746 -59.4925 90° East  Level Estimated
Fri 07:32:00 AM 13.0746 -59.4925 90° East  Level Estimated

Login

Don't have an account? Register now (free) for customized features, flight alerts, and more!